Time;durP1;ratioP1;P1;durP2;ratioP2;P2;SDS_P1;SDS_P2;PMS_P1;PMS_P2;Temp;Humidity;BMP_temperature;BMP_pressure;BME280_temperature;BME280_humidity;BME280_pressure;Samples;Min_cycle;Max_cycle;Signal;HPM_P1;HPM_P2
2021/04/07 00:00:21;;;;;;;1999.90;999.90;;;17.10;90.70;;;;;;5031947;28;20252;-47
2021/04/07 00:02:50;;;;;;;1999.90;999.90;;;17.00;91.10;;;;;;5031959;28;20155;-46
2021/04/07 00:05:21;;;;;;;1999.90;999.90;;;16.90;91.40;;;;;;5031864;28;20182;-46
2021/04/07 00:07:51;;;;;;;1999.90;999.90;;;16.90;91.50;;;;;;5031831;28;20194;-46
2021/04/07 00:10:20;;;;;;;1999.90;999.90;;;16.80;91.50;;;;;;5031750;28;20246;-46
2021/04/07 00:12:48;;;;;;;1999.90;999.90;;;16.80;91.60;;;;;;5031772;28;20253;-46
2021/04/07 00:15:21;;;;;;;1999.90;999.90;;;16.70;91.80;;;;;;5031716;28;20205;-47
2021/04/07 00:17:50;;;;;;;1999.90;999.90;;;16.80;92.00;;;;;;5031470;28;20671;-47
2021/04/07 00:20:20;;;;;;;1999.90;999.90;;;16.80;92.10;;;;;;5031601;28;20522;-48
2021/04/07 00:22:48;;;;;;;1999.90;999.90;;;16.70;92.20;;;;;;5031609;28;20177;-48
2021/04/07 00:25:16;;;;;;;1999.90;999.90;;;16.60;92.40;;;;;;5031440;28;20579;-49
2021/04/07 00:27:44;;;;;;;1999.90;999.90;;;16.50;92.50;;;;;;5031583;28;20253;-47
2021/04/07 00:30:12;;;;;;;1999.90;999.90;;;16.40;92.60;;;;;;5031438;28;20281;-48
2021/04/07 00:32:39;;;;;;;1999.90;999.90;;;16.40;92.80;;;;;;5031528;28;20198;-48
2021/04/07 00:35:06;;;;;;;1999.90;999.90;;;16.30;93.10;;;;;;5031519;28;20682;-47
2021/04/07 00:37:36;;;;;;;1999.90;999.90;;;16.40;93.80;;;;;;5031314;28;20177;-46
2021/04/07 00:40:07;;;;;;;1999.90;999.90;;;16.40;93.40;;;;;;5031310;28;20253;-47
2021/04/07 00:42:35;;;;;;;1999.90;999.90;;;16.40;93.60;;;;;;5031538;28;20150;-47
2021/04/07 00:45:04;;;;;;;1999.90;999.90;;;16.40;94.30;;;;;;5031267;28;20177;-45
2021/04/07 00:47:31;;;;;;;1999.90;999.90;;;16.40;94.10;;;;;;5031103;28;20170;-51
2021/04/07 00:49:58;;;;;;;1999.90;999.90;;;16.50;93.70;;;;;;5031157;28;20170;-47
2021/04/07 00:52:25;;;;;;;1999.90;999.90;;;16.40;94.00;;;;;;5031452;28;20520;-46
2021/04/07 00:54:53;;;;;;;1999.90;999.90;;;16.50;93.90;;;;;;5031060;28;20249;-47
2021/04/07 00:57:22;;;;;;;1999.90;999.90;;;16.50;93.60;;;;;;5031000;28;20184;-48
2021/04/07 00:59:49;;;;;;;1999.90;999.90;;;16.40;93.20;;;;;;5030976;28;20524;-46
2021/04/07 01:02:16;;;;;;;1999.90;999.90;;;16.30;92.70;;;;;;5031003;28;20347;-46
2021/04/07 01:04:44;;;;;;;1999.90;999.90;;;16.20;92.60;;;;;;5030994;28;20170;-46
2021/04/07 01:07:12;;;;;;;1999.90;999.90;;;16.10;93.00;;;;;;5030925;28;20226;-48
2021/04/07 01:09:40;;;;;;;1999.90;999.90;;;16.00;93.60;;;;;;5030955;28;20278;-47
2021/04/07 01:12:07;;;;;;;1999.90;999.90;;;15.90;93.70;;;;;;5030946;28;20174;-46
2021/04/07 01:14:35;;;;;;;1999.90;999.90;;;15.80;93.80;;;;;;5030828;28;20166;-46
2021/04/07 01:17:03;;;;;;;1999.90;999.90;;;15.80;94.00;;;;;;5030661;28;20214;-46
2021/04/07 01:19:30;;;;;;;1999.90;999.90;;;15.70;94.10;;;;;;5030612;28;20229;-56
2021/04/07 01:21:57;;;;;;;1999.90;999.90;;;15.60;94.20;;;;;;5030719;28;20646;-48
2021/04/07 01:24:25;;;;;;;1999.90;999.90;;;15.60;94.40;;;;;;5030640;28;20173;-48
2021/04/07 01:26:52;;;;;;;1999.90;999.90;;;15.50;94.60;;;;;;5030607;28;20174;-48
2021/04/07 01:29:20;;;;;;;1999.90;999.90;;;15.50;94.70;;;;;;5030451;28;20251;-47
2021/04/07 01:31:50;;;;;;;1999.90;999.90;;;15.40;95.00;;;;;;5030861;28;20502;-47
2021/04/07 01:34:22;;;;;;;1999.90;999.90;;;15.40;95.00;;;;;;5030656;28;20194;-46
2021/04/07 01:36:53;;;;;;;1999.90;999.90;;;15.50;94.60;;;;;;5030562;28;20162;-47
2021/04/07 01:39:21;;;;;;;1999.90;999.90;;;15.40;94.90;;;;;;5029947;28;20694;-46
2021/04/07 01:41:48;;;;;;;1999.90;999.90;;;15.40;95.10;;;;;;5030278;28;20178;-47
2021/04/07 01:44:18;;;;;;;1999.90;999.90;;;15.40;95.20;;;;;;5030420;28;20166;-46
2021/04/07 01:46:46;;;;;;;1999.90;999.90;;;15.40;95.20;;;;;;5030306;28;20180;-47
2021/04/07 01:49:13;;;;;;;1999.90;999.90;;;15.40;95.00;;;;;;5030357;28;20274;-46
2021/04/07 01:51:41;;;;;;;1999.90;999.90;;;15.30;95.20;;;;;;5030344;28;20643;-47
2021/04/07 01:54:14;;;;;;;1999.90;999.90;;;15.40;95.10;;;;;;5030228;28;20166;-48
2021/04/07 01:56:50;;;;;;;1999.90;999.90;;;15.40;95.00;;;;;;5030445;28;20158;-47
2021/04/07 01:59:23;;;;;;;1999.90;999.90;;;15.40;94.90;;;;;;5030102;28;20165;-47
2021/04/07 02:01:51;;;;;;;1999.90;999.90;;;15.50;95.00;;;;;;5030205;28;20162;-47
2021/04/07 02:04:19;;;;;;;1999.90;999.90;;;15.40;94.90;;;;;;5030130;28;20208;-46
2021/04/07 02:06:47;;;;;;;1999.90;999.90;;;15.40;94.70;;;;;;5030133;28;20518;-47
2021/04/07 02:09:15;;;;;;;1999.90;999.90;;;15.40;94.70;;;;;;5030071;28;20718;-46
2021/04/07 02:11:49;;;;;;;1999.90;999.90;;;15.40;94.70;;;;;;5030142;28;20232;-46
2021/04/07 02:14:21;;;;;;;1999.90;999.90;;;15.40;94.60;;;;;;5030156;28;20259;-49
2021/04/07 02:16:59;;;;;;;1999.90;999.90;;;15.20;94.80;;;;;;5030013;28;20181;-48
2021/04/07 02:19:33;;;;;;;1999.90;999.90;;;15.30;94.90;;;;;;5028503;28;20225;-47
2021/04/07 02:22:06;;;;;;;1999.90;999.90;;;15.30;95.00;;;;;;5029833;28;20260;-48
2021/04/07 02:24:34;;;;;;;1999.90;999.90;;;15.20;95.40;;;;;;5029772;28;20166;-51
2021/04/07 02:27:13;;;;;;;1999.90;999.90;;;15.20;95.40;;;;;;5029842;28;20162;-47
2021/04/07 02:29:42;;;;;;;1999.90;999.90;;;15.10;95.80;;;;;;5029744;28;20222;-46
2021/04/07 02:32:09;;;;;;;1999.90;999.90;;;15.00;96.20;;;;;;5029759;28;20170;-46
2021/04/07 02:34:37;;;;;;;1999.90;999.90;;;15.10;96.30;;;;;;5029712;28;20177;-46
2021/04/07 02:37:04;;;;;;;1999.90;999.90;;;15.10;96.40;;;;;;5029721;28;20170;-47
2021/04/07 02:39:31;;;;;;;1999.90;999.90;;;15.00;96.40;;;;;;5029648;28;20190;-48
2021/04/07 02:41:58;;;;;;;1999.90;999.90;;;15.00;96.50;;;;;;5029646;28;20173;-46
2021/04/07 02:44:25;;;;;;;1999.90;999.90;;;14.90;96.60;;;;;;5029551;28;20182;-47
2021/04/07 02:46:52;;;;;;;1999.90;999.90;;;15.00;96.50;;;;;;5029566;28;20658;-46
2021/04/07 02:49:19;;;;;;;1999.90;999.90;;;15.10;96.20;;;;;;5029628;28;20290;-47
2021/04/07 02:51:46;;;;;;;1999.90;999.90;;;15.00;96.10;;;;;;5032410;28;20170;-46
2021/04/07 02:54:13;;;;;;;1999.90;999.90;;;14.90;96.30;;;;;;5032984;28;20169;-46
2021/04/07 02:56:40;;;;;;;1999.90;999.90;;;14.90;96.40;;;;;;5032936;28;20182;-45
2021/04/07 02:59:07;;;;;;;1999.90;999.90;;;14.80;96.60;;;;;;5032901;28;20182;-47
2021/04/07 03:01:34;;;;;;;1999.90;999.90;;;14.70;96.70;;;;;;5032872;28;20227;-45
2021/04/07 03:04:01;;;;;;;1999.90;999.90;;;14.60;96.80;;;;;;5032842;28;20220;-46
2021/04/07 03:06:29;;;;;;;1999.90;999.90;;;14.50;97.10;;;;;;5032836;28;20162;-45
2021/04/07 03:08:55;;;;;;;1999.90;999.90;;;14.30;97.40;;;;;;5032694;28;20248;-46
2021/04/07 03:11:23;;;;;;;1999.90;999.90;;;14.30;97.60;;;;;;5032768;28;20174;-46
2021/04/07 03:13:50;;;;;;;1999.90;999.90;;;14.30;97.60;;;;;;5032769;28;20188;-47
2021/04/07 03:16:16;;;;;;;1999.90;999.90;;;14.20;97.70;;;;;;5032834;28;20654;-45
2021/04/07 03:18:43;;;;;;;1999.90;999.90;;;14.20;97.70;;;;;;5032419;28;20232;-45
2021/04/07 03:21:10;;;;;;;1999.90;999.90;;;14.30;97.70;;;;;;5032559;28;20162;-46
2021/04/07 03:23:37;;;;;;;1999.90;999.90;;;14.30;97.60;;;;;;5032497;28;20170;-46
2021/04/07 03:26:04;;;;;;;1999.90;999.90;;;14.30;97.80;;;;;;5032541;28;20170;-47
2021/04/07 03:28:31;;;;;;;1999.90;999.90;;;14.20;98.30;;;;;;5032364;28;20208;-46
2021/04/07 03:30:58;;;;;;;1999.90;999.90;;;14.10;98.50;;;;;;5032403;28;20228;-47
2021/04/07 03:33:35;;;;;;;1999.90;999.90;;;14.20;98.50;;;;;;5032251;28;20181;-47
2021/04/07 03:36:05;;;;;;;1999.90;999.90;;;14.20;98.60;;;;;;5032311;28;20249;-45
2021/04/07 03:38:33;;;;;;;1999.90;999.90;;;14.30;98.40;;;;;;5032223;28;20173;-60
2021/04/07 03:41:00;;;;;;;1999.90;999.90;;;14.40;98.30;;;;;;5032141;28;20764;-47
2021/04/07 03:43:27;;;;;;;1999.90;999.90;;;14.40;98.70;;;;;;5032202;28;20199;-47
2021/04/07 03:45:56;;;;;;;1999.90;999.90;;;14.50;98.70;;;;;;5032194;28;20188;-54
2021/04/07 03:48:27;;;;;;;1999.90;999.90;;;14.50;98.50;;;;;;5032200;28;20204;-47
2021/04/07 03:50:56;;;;;;;1999.90;999.90;;;14.50;98.90;;;;;;5032294;28;20264;-48
2021/04/07 03:53:24;;;;;;;1999.90;999.90;;;14.50;98.90;;;;;;5032255;28;20242;-47
2021/04/07 03:55:53;;;;;;;1999.90;999.90;;;14.50;98.80;;;;;;5032009;28;20185;-47
2021/04/07 03:58:21;;;;;;;1999.90;999.90;;;14.50;99.10;;;;;;5031997;28;20593;-47
2021/04/07 04:00:48;;;;;;;1999.90;999.90;;;14.60;98.80;;;;;;5031379;28;20188;-46
2021/04/07 04:03:16;;;;;;;1999.90;999.90;;;14.50;98.50;;;;;;5031889;28;20277;-45
2021/04/07 04:05:43;;;;;;;1999.90;999.90;;;14.50;97.60;;;;;;5031775;28;20223;-45
2021/04/07 04:08:10;;;;;;;1999.90;999.90;;;14.40;97.30;;;;;;5031630;28;20251;-46
2021/04/07 04:10:37;;;;;;;1999.90;999.90;;;14.40;97.30;;;;;;5031814;28;20174;-47
2021/04/07 04:13:05;;;;;;;1999.90;999.90;;;14.30;97.70;;;;;;5031569;28;20182;-46
2021/04/07 04:15:33;;;;;;;1999.90;999.90;;;14.20;97.70;;;;;;5031668;28;20195;-48
2021/04/07 04:18:00;;;;;;;1999.90;999.90;;;14.30;97.70;;;;;;5031417;28;20210;-46
2021/04/07 04:20:27;;;;;;;1999.90;999.90;;;14.20;97.60;;;;;;5031584;28;20178;-48
2021/04/07 04:22:54;;;;;;;1999.90;999.90;;;14.20;97.80;;;;;;5031640;28;20174;-48
2021/04/07 04:25:23;;;;;;;1999.90;999.90;;;14.20;98.10;;;;;;5031403;28;20257;-45
2021/04/07 04:27:50;;;;;;;1999.90;999.90;;;14.20;98.10;;;;;;5030124;28;20170;-45
2021/04/07 04:30:20;;;;;;;1999.90;999.90;;;14.10;98.50;;;;;;5031358;28;20178;-47
2021/04/07 04:32:48;;;;;;;1999.90;999.90;;;14.20;98.30;;;;;;5031437;28;20166;-47
2021/04/07 04:35:15;;;;;;;1999.90;999.90;;;14.30;98.40;;;;;;5031342;28;20174;-45
2021/04/07 04:37:42;;;;;;;1999.90;999.90;;;14.40;98.00;;;;;;5031336;28;20174;-47
2021/04/07 04:40:10;;;;;;;1999.90;999.90;;;14.40;98.00;;;;;;5031345;28;20178;-48
2021/04/07 04:42:38;;;;;;;1999.90;999.90;;;14.40;97.90;;;;;;5031230;28;20181;-46
2021/04/07 04:45:06;;;;;;;1999.90;999.90;;;14.40;98.00;;;;;;5031268;28;20206;-47
2021/04/07 04:47:34;;;;;;;1999.90;999.90;;;14.40;97.90;;;;;;5031117;28;20637;-48
2021/04/07 04:50:01;;;;;;;1999.90;999.90;;;14.40;98.20;;;;;;5031131;28;20178;-47
2021/04/07 04:52:28;;;;;;;1999.90;999.90;;;14.40;98.10;;;;;;5031179;28;20261;-46
2021/04/07 04:54:55;;;;;;;1999.90;999.90;;;14.40;98.10;;;;;;5031024;28;20270;-46
2021/04/07 04:57:21;;;;;;;1999.90;999.90;;;14.40;98.00;;;;;;5030933;28;20192;-46
2021/04/07 04:59:48;;;;;;;1999.90;999.90;;;14.40;98.30;;;;;;5030796;28;20223;-48
2021/04/07 05:02:15;;;;;;;1999.90;999.90;;;14.40;98.60;;;;;;5031328;28;20563;-47
2021/04/07 05:04:42;;;;;;;1999.90;999.90;;;14.30;98.70;;;;;;5030936;28;20654;-47
2021/04/07 05:07:09;;;;;;;1999.90;999.90;;;14.40;98.70;;;;;;5029426;28;20181;-45
2021/04/07 05:09:36;;;;;;;1999.90;999.90;;;14.40;98.60;;;;;;5030691;28;20206;-46
2021/04/07 05:12:03;;;;;;;1999.90;999.90;;;14.50;98.70;;;;;;5029675;28;20596;-45
2021/04/07 05:14:30;;;;;;;1999.90;999.90;;;14.50;98.60;;;;;;5030016;28;20181;-47
2021/04/07 05:16:56;;;;;;;1999.90;999.90;;;14.40;98.60;;;;;;5030636;28;20638;-58
2021/04/07 05:19:23;;;;;;;1999.90;999.90;;;14.50;98.60;;;;;;5029984;28;20230;-46
2021/04/07 05:21:50;;;;;;;1999.90;999.90;;;14.50;98.70;;;;;;5029355;28;20185;-46
2021/04/07 05:24:17;;;;;;;1999.90;999.90;;;14.50;98.60;;;;;;5030581;28;20260;-47
2021/04/07 05:26:44;;;;;;;1999.90;999.90;;;14.60;98.70;;;;;;5030545;28;20631;-46
2021/04/07 05:29:10;;;;;;;1999.90;999.90;;;14.60;98.80;;;;;;5030340;28;20602;-47
2021/04/07 05:31:37;;;;;;;1999.90;999.90;;;14.70;98.60;;;;;;5029972;28;20186;-52
2021/04/07 05:34:04;;;;;;;1999.90;999.90;;;14.70;98.50;;;;;;5030284;28;20214;-47
2021/04/07 05:36:31;;;;;;;1999.90;999.90;;;14.80;98.20;;;;;;5030427;28;20608;-48
2021/04/07 05:38:58;;;;;;;1999.90;999.90;;;14.80;98.20;;;;;;5030490;28;20231;-56
2021/04/07 05:41:25;;;;;;;1999.90;999.90;;;14.80;98.10;;;;;;5030114;28;20166;-53
2021/04/07 05:43:52;;;;;;;1999.90;999.90;;;14.80;98.00;;;;;;5030145;28;20162;-46
2021/04/07 05:46:19;;;;;;;1999.90;999.90;;;14.80;97.90;;;;;;5030114;28;20166;-49
2021/04/07 05:48:46;;;;;;;1999.90;999.90;;;14.80;97.60;;;;;;5029895;28;20189;-46
2021/04/07 05:51:12;;;;;;;1999.90;999.90;;;14.70;97.30;;;;;;5029810;28;20578;-47
2021/04/07 05:53:39;;;;;;;1999.90;999.90;;;14.70;97.30;;;;;;5029962;28;20244;-51
2021/04/07 05:56:06;;;;;;;1999.90;999.90;;;14.70;97.60;;;;;;5029804;28;20169;-53
2021/04/07 05:58:33;;;;;;;1999.90;999.90;;;14.70;97.60;;;;;;5029989;28;20162;-49
2021/04/07 06:01:00;;;;;;;1999.90;999.90;;;14.70;97.50;;;;;;5028673;28;20169;-52
2021/04/07 06:03:27;;;;;;;1999.90;999.90;;;14.70;97.50;;;;;;5079072;27;20241;-49
2021/04/07 06:05:53;;;;;;;1999.90;999.90;;;14.80;97.60;;;;;;5029675;28;20264;-41
2021/04/07 06:08:20;;;;;;;1999.90;999.90;;;14.90;96.00;;;;;;5029062;28;20217;-41
2021/04/07 06:10:48;;;;;;;1999.90;999.90;;;15.10;96.30;;;;;;5029388;28;20684;-56
2021/04/07 06:13:17;;;;;;;1999.90;999.90;;;15.20;96.30;;;;;;5029272;28;20644;-47
2021/04/07 06:15:45;;;;;;;1999.90;999.90;;;15.40;96.00;;;;;;5029462;28;20240;-49
2021/04/07 06:18:13;;;;;;;1999.90;999.90;;;15.80;95.70;;;;;;5027129;28;20231;-50
2021/04/07 06:20:43;;;;;;;1999.90;999.90;;;16.00;95.10;;;;;;5029070;28;20177;-44
2021/04/07 06:23:11;;;;;;;1999.90;999.90;;;16.10;94.70;;;;;;5028245;28;20259;-42
2021/04/07 06:25:39;;;;;;;1999.90;999.90;;;16.20;94.40;;;;;;5030401;28;20180;-54
2021/04/07 06:28:07;;;;;;;1999.90;999.90;;;16.30;94.50;;;;;;5031939;28;20194;-52
2021/04/07 06:33:10;;;;;;;1999.90;999.90;;;16.40;94.40;;;;;;5032323;28;20197;-46
2021/04/07 06:35:38;;;;;;;1999.90;999.90;;;16.50;94.50;;;;;;5032898;28;20197;-55
2021/04/07 06:38:05;;;;;;;1999.90;999.90;;;16.60;94.70;;;;;;5033004;28;20173;-46
2021/04/07 06:40:33;;;;;;;1999.90;999.90;;;16.80;94.20;;;;;;5032799;28;20182;-53
2021/04/07 06:43:01;;;;;;;1999.90;999.90;;;16.90;94.30;;;;;;5032193;28;20208;-58
2021/04/07 06:45:33;;;;;;;1999.90;999.90;;;17.10;93.50;;;;;;5030173;28;20556;-60
2021/04/07 06:48:00;;;;;;;1999.90;999.90;;;17.20;93.40;;;;;;5032574;28;20579;-54
2021/04/07 06:50:28;;;;;;;1999.90;999.90;;;17.40;93.00;;;;;;5031903;28;20215;-47
2021/04/07 06:52:59;;;;;;;1999.90;999.90;;;17.40;92.80;;;;;;5032157;28;20177;-45
2021/04/07 06:55:26;;;;;;;1999.90;999.90;;;17.40;93.00;;;;;;5032365;28;20514;-44
2021/04/07 06:57:56;;;;;;;1999.90;999.90;;;17.40;93.10;;;;;;5031389;28;20644;-49
2021/04/07 07:00:26;;;;;;;1999.90;999.90;;;17.50;93.00;;;;;;5032187;28;20166;-49
2021/04/07 07:03:07;;;;;;;1999.90;999.90;;;17.60;92.80;;;;;;5031999;28;20304;-50
2021/04/07 07:05:38;;;;;;;1999.90;999.90;;;17.60;92.40;;;;;;5032086;28;20162;-48
2021/04/07 07:08:11;;;;;;;1999.90;999.90;;;17.70;92.30;;;;;;5031098;28;20201;-49
2021/04/07 07:10:46;;;;;;;1999.90;999.90;;;17.90;92.70;;;;;;5032039;28;20694;-52
2021/04/07 07:13:18;;;;;;;1999.90;999.90;;;18.30;91.90;;;;;;5032011;28;20658;-54
2021/04/07 07:15:46;;;;;;;1999.90;999.90;;;18.70;90.80;;;;;;5029120;28;20212;-61
2021/04/07 07:18:23;;;;;;;1999.90;999.90;;;19.00;89.50;;;;;;5030897;28;20279;-58
2021/04/07 07:20:51;;;;;;;1999.90;999.90;;;19.20;89.00;;;;;;5031159;28;20658;-56
2021/04/07 07:23:32;;;;;;;1999.90;999.90;;;19.20;88.00;;;;;;5031437;28;20177;-45
2021/04/07 07:26:07;;;;;;;1999.90;999.90;;;19.30;87.50;;;;;;5031472;28;20165;-52
2021/04/07 07:28:44;;;;;;;1999.90;999.90;;;19.40;87.50;;;;;;5031304;28;20292;-44
2021/04/07 07:31:24;;;;;;;1999.90;999.90;;;19.50;86.00;;;;;;5029800;28;20274;-47
2021/04/07 07:33:55;;;;;;;1999.90;999.90;;;19.50;85.80;;;;;;5031276;28;20189;-49
2021/04/07 07:36:23;;;;;;;1999.90;999.90;;;19.60;85.40;;;;;;5029570;28;20154;-44
2021/04/07 07:38:58;;;;;;;1999.90;999.90;;;19.80;85.50;;;;;;5029957;28;20180;-50
2021/04/07 07:41:34;;;;;;;1999.90;999.90;;;20.00;83.90;;;;;;5027805;28;20166;-45
2021/04/07 07:44:02;;;;;;;1999.90;999.90;;;20.20;82.00;;;;;;5030432;28;20256;-45
2021/04/07 07:46:31;;;;;;;1999.90;999.90;;;20.40;81.20;;;;;;5030645;28;20179;-45
2021/04/07 07:49:02;;;;;;;1999.90;999.90;;;20.60;80.00;;;;;;5029133;28;20210;-47
2021/04/07 07:51:30;;;;;;;1999.90;999.90;;;20.70;78.50;;;;;;5030902;28;20200;-45
2021/04/07 07:53:57;;;;;;;1999.90;999.90;;;20.90;77.60;;;;;;5030911;28;20575;-44
2021/04/07 07:56:36;;;;;;;1999.90;999.90;;;21.10;76.30;;;;;;5030861;28;20261;-49
2021/04/07 07:59:02;;;;;;;1999.90;999.90;;;21.50;75.70;;;;;;5030706;28;20147;-46
2021/04/07 08:01:44;;;;;;;1999.90;999.90;;;21.70;73.10;;;;;;5030521;28;20174;-53
2021/04/07 08:04:11;;;;;;;1999.90;999.90;;;21.70;72.70;;;;;;5011330;28;20209;-49
2021/04/07 08:06:37;;;;;;;1999.90;999.90;;;22.30;70.80;;;;;;5011051;28;20299;-48
2021/04/07 08:09:05;;;;;;;1999.90;999.90;;;22.60;69.50;;;;;;5030337;28;20302;-52
2021/04/07 08:11:33;;;;;;;1999.90;999.90;;;23.50;66.00;;;;;;5030447;28;20174;-57
2021/04/07 08:14:01;;;;;;;1999.90;999.90;;;24.10;62.70;;;;;;5029994;28;20177;-47
2021/04/07 08:16:29;;;;;;;1999.90;999.90;;;24.10;62.00;;;;;;5039183;28;20173;-54
2021/04/07 08:18:56;;;;;;;1999.90;999.90;;;24.30;59.20;;;;;;5043164;28;20218;-49
2021/04/07 08:21:23;;;;;;;1999.90;999.90;;;24.30;59.40;;;;;;5030412;28;20166;-49
2021/04/07 08:23:58;;;;;;;1999.90;999.90;;;24.60;58.00;;;;;;5030562;28;20174;-55
2021/04/07 08:26:28;;;;;;;1999.90;999.90;;;25.50;55.80;;;;;;5030198;28;20193;-49
2021/04/07 08:28:56;;;;;;;1999.90;999.90;;;26.40;54.30;;;;;;5030456;28;20201;-50
2021/04/07 08:31:25;;;;;;;1999.90;999.90;;;26.80;51.70;;;;;;5032290;28;20173;-47
2021/04/07 08:33:54;;;;;;;1999.90;999.90;;;27.30;50.70;;;;;;5030776;28;20165;-48
2021/04/07 08:36:24;;;;;;;1999.90;999.90;;;27.80;48.60;;;;;;5030532;28;20166;-50
2021/04/07 08:39:04;;;;;;;1999.90;999.90;;;28.20;48.10;;;;;;5030241;28;20192;-46
2021/04/07 08:41:32;;;;;;;1999.90;999.90;;;28.30;47.60;;;;;;5030037;28;20181;-43
2021/04/07 08:44:01;;;;;;;1999.90;999.90;;;28.40;46.50;;;;;;5030463;28;20174;-48
2021/04/07 08:46:51;;;;;;;1999.90;999.90;;;28.80;45.70;;;;;;5028242;28;20244;-43
2021/04/07 08:49:41;;;;;;;1999.90;999.90;;;28.90;45.00;;;;;;5029225;27;20264;-61
2021/04/07 08:52:23;;;;;;;1999.90;999.90;;;29.30;45.00;;;;;;5052857;27;20560;-47
2021/04/07 08:54:52;;;;;;;1999.90;999.90;;;29.70;43.70;;;;;;5034482;28;20174;-47
2021/04/07 08:57:25;;;;;;;1999.90;999.90;;;29.90;43.60;;;;;;5044361;27;20177;-54
2021/04/07 08:59:59;;;;;;;1999.90;999.90;;;30.00;42.60;;;;;;5030084;28;20165;-54
2021/04/07 09:02:27;;;;;;;1999.90;999.90;;;29.80;42.90;;;;;;5029497;28;20172;-47
2021/04/07 09:05:08;;;;;;;1999.90;999.90;;;29.50;43.20;;;;;;5030468;28;20236;-45
2021/04/07 09:07:38;;;;;;;1999.90;999.90;;;29.50;43.20;;;;;;5029669;28;20481;-45
2021/04/07 09:10:10;;;;;;;1999.90;999.90;;;29.80;42.20;;;;;;5061011;27;20198;-52
2021/04/07 09:12:38;;;;;;;1999.90;999.90;;;28.90;43.90;;;;;;5029491;28;20181;-48
2021/04/07 09:15:23;;;;;;;1999.90;999.90;;;29.30;43.80;;;;;;5030084;28;20233;-57
2021/04/07 09:17:56;;;;;;;1999.90;999.90;;;29.30;43.80;;;;;;5029744;28;20214;-56
2021/04/07 09:20:40;;;;;;;1999.90;999.90;;;29.50;42.90;;;;;;5029875;28;20654;-60
2021/04/07 09:23:24;;;;;;;1999.90;999.90;;;30.30;41.80;;;;;;5028907;28;20177;-59
2021/04/07 09:25:54;;;;;;;1999.90;999.90;;;30.70;41.60;;;;;;5029701;28;20222;-57
2021/04/07 09:28:38;;;;;;;1999.90;999.90;;;31.00;40.10;;;;;;5029687;28;20198;-55
2021/04/07 09:31:13;;;;;;;1999.90;999.90;;;31.40;39.50;;;;;;5029313;28;20191;-45
2021/04/07 09:33:43;;;;;;;1999.90;999.90;;;31.20;39.40;;;;;;5029221;28;20510;-50
2021/04/07 09:36:11;;;;;;;1999.90;999.90;;;30.70;40.60;;;;;;5029653;28;20174;-49
2021/04/07 09:38:49;;;;;;;1999.90;999.90;;;30.80;39.60;;;;;;5029131;28;20166;-47
2021/04/07 09:41:25;;;;;;;1999.90;999.90;;;31.10;39.10;;;;;;5049190;28;20177;-47
2021/04/07 09:43:53;;;;;;;1999.90;999.90;;;30.40;39.50;;;;;;5037200;28;20526;-49
2021/04/07 09:46:21;;;;;;;1999.90;999.90;;;31.10;40.00;;;;;;5095009;27;20184;-54
2021/04/07 09:48:56;;;;;;;1999.90;999.90;;;30.60;40.80;;;;;;5133634;27;20206;-41
2021/04/07 09:51:23;;;;;;;1999.90;999.90;;;30.50;39.40;;;;;;5133719;27;20190;-40
2021/04/07 09:53:51;;;;;;;1999.90;999.90;;;30.60;39.50;;;;;;5104304;27;20166;-40
2021/04/07 09:56:18;;;;;;;1999.90;999.90;;;30.80;39.10;;;;;;5029796;28;20628;-48
2021/04/07 09:58:48;;;;;;;1999.90;999.90;;;31.40;37.90;;;;;;5028481;28;20166;-43
2021/04/07 10:01:16;;;;;;;1999.90;999.90;;;31.70;37.80;;;;;;5022509;28;20177;-56
2021/04/07 10:03:54;;;;;;;1999.90;999.90;;;31.70;37.40;;;;;;5037110;27;20651;-52
2021/04/07 10:06:25;;;;;;;1999.90;999.90;;;31.90;37.10;;;;;;5029584;28;20189;-47
2021/04/07 10:09:09;;;;;;;1999.90;999.90;;;31.80;36.70;;;;;;5045377;28;20213;-46
2021/04/07 10:11:39;;;;;;;1999.90;999.90;;;31.80;36.00;;;;;;5029756;28;20187;-45
2021/04/07 10:14:07;;;;;;;1999.90;999.90;;;31.50;36.80;;;;;;5029550;28;20178;-47
2021/04/07 10:16:39;;;;;;;1999.90;999.90;;;31.60;37.10;;;;;;5028114;28;20491;-46
2021/04/07 10:19:10;;;;;;;1999.90;999.90;;;31.90;36.80;;;;;;5029128;28;20267;-47
2021/04/07 10:21:43;;;;;;;1999.90;999.90;;;32.10;36.30;;;;;;5029285;28;20658;-47
2021/04/07 10:24:16;;;;;;;1999.90;999.90;;;32.00;35.70;;;;;;5028988;28;20193;-52
2021/04/07 10:26:44;;;;;;;1999.90;999.90;;;31.90;35.90;;;;;;5056148;28;20154;-47
2021/04/07 10:29:33;;;;;;;1999.90;999.90;;;30.90;37.20;;;;;;5048887;28;20662;-48
2021/04/07 10:32:00;;;;;;;1999.90;999.90;;;29.50;39.10;;;;;;5049230;28;20161;-45
2021/04/07 10:34:32;;;;;;;1999.90;999.90;;;30.30;38.60;;;;;;5037867;28;20174;-43
2021/04/07 10:37:00;;;;;;;1999.90;999.90;;;30.80;37.70;;;;;;5043931;28;20225;-45
2021/04/07 10:39:36;;;;;;;1999.90;999.90;;;31.40;36.40;;;;;;5049313;28;20676;-44
2021/04/07 10:42:03;;;;;;;1999.90;999.90;;;31.60;35.60;;;;;;5036615;28;20170;-52
2021/04/07 10:44:32;;;;;;;1999.90;999.90;;;31.50;35.50;;;;;;5028560;28;20181;-49
2021/04/07 10:46:59;;;;;;;1999.90;999.90;;;31.70;35.10;;;;;;5029288;28;20177;-49
2021/04/07 10:49:26;;;;;;;1999.90;999.90;;;32.00;36.00;;;;;;5029101;28;20217;-45
2021/04/07 10:52:01;;;;;;;1999.90;999.90;;;32.30;35.10;;;;;;5028989;28;20193;-51
2021/04/07 10:54:28;;;;;;;1999.90;999.90;;;32.50;33.00;;;;;;5029230;28;20172;-49
2021/04/07 10:57:07;;;;;;;1999.90;999.90;;;32.50;33.50;;;;;;5035281;28;20216;-49
2021/04/07 10:59:34;;;;;;;1999.90;999.90;;;32.70;32.80;;;;;;5029404;28;20170;-41
2021/04/07 11:02:14;;;;;;;1999.90;999.90;;;32.70;33.30;;;;;;5028846;28;20587;-46
2021/04/07 11:04:40;;;;;;;1999.90;999.90;;;32.50;32.60;;;;;;5028784;28;20154;-41
2021/04/07 11:07:12;;;;;;;1999.90;999.90;;;32.50;31.20;;;;;;5028766;28;20178;-43
2021/04/07 11:09:49;;;;;;;1999.90;999.90;;;32.50;31.30;;;;;;5028756;28;20232;-52
2021/04/07 11:12:21;;;;;;;1999.90;999.90;;;32.40;31.10;;;;;;5038524;28;20175;-38
2021/04/07 11:14:52;;;;;;;1999.90;999.90;;;31.80;31.90;;;;;;5012526;28;20197;-47
2021/04/07 11:17:19;;;;;;;1999.90;999.90;;;31.60;31.50;;;;;;5030069;28;20253;-42
2021/04/07 11:19:47;;;;;;;1999.90;999.90;;;32.10;30.90;;;;;;5031345;28;20220;-45
2021/04/07 11:22:14;;;;;;;1999.90;999.90;;;32.10;30.50;;;;;;5031939;28;20174;-46
2021/04/07 11:24:41;;;;;;;1999.90;999.90;;;32.10;31.10;;;;;;5031815;28;20166;-45
2021/04/07 11:27:08;;;;;;;1999.90;999.90;;;31.80;31.80;;;;;;5032007;28;20193;-43
2021/04/07 11:29:38;;;;;;;1999.90;999.90;;;32.10;30.70;;;;;;5031602;28;20209;-44
2021/04/07 11:32:07;;;;;;;1999.90;999.90;;;32.50;30.70;;;;;;5031774;28;20222;-48
2021/04/07 11:34:44;;;;;;;1999.90;999.90;;;32.60;30.00;;;;;;5031796;28;20184;-43
2021/04/07 11:39:43;;;;;;;1999.90;999.90;;;32.60;29.40;;;;;;5030760;28;20181;-42
2021/04/07 11:42:21;;;;;;;1999.90;999.90;;;32.60;29.50;;;;;;5031831;28;20195;-47
2021/04/07 11:44:48;;;;;;;1999.90;999.90;;;32.60;28.80;;;;;;5048383;28;20165;-46
2021/04/07 11:47:15;;;;;;;1999.90;999.90;;;32.60;28.70;;;;;;5040216;28;20221;-55
2021/04/07 11:49:41;;;;;;;1999.90;999.90;;;32.60;28.80;;;;;;5041294;27;20205;-54
2021/04/07 11:52:12;;;;;;;1999.90;999.90;;;32.60;28.60;;;;;;5031602;28;20268;-56
2021/04/07 11:54:39;;;;;;;1999.90;999.90;;;32.60;28.70;;;;;;5031624;28;20189;-48
2021/04/07 11:57:06;;;;;;;1999.90;999.90;;;32.70;28.30;;;;;;5031112;28;20173;-43
2021/04/07 11:59:33;;;;;;;1999.90;999.90;;;32.80;28.20;;;;;;5031495;28;20197;-45
2021/04/07 12:02:01;;;;;;;1999.90;999.90;;;32.80;28.50;;;;;;5031545;28;20217;-44
2021/04/07 12:04:29;;;;;;;1999.90;999.90;;;32.80;28.60;;;;;;5030806;28;20608;-46
2021/04/07 12:06:57;;;;;;;1999.90;999.90;;;32.90;28.90;;;;;;5031377;28;20531;-46
2021/04/07 12:09:25;;;;;;;1999.90;999.90;;;33.00;29.10;;;;;;5031254;28;20201;-45
2021/04/07 12:11:51;;;;;;;1999.90;999.90;;;33.20;29.00;;;;;;5030695;28;20181;-52
2021/04/07 12:14:18;;;;;;;1999.90;999.90;;;33.00;29.70;;;;;;5031009;28;20631;-48